Lawrence, KS (66049)

10:11 PM CDT on August 22, 2017 (GMT -0500)
Trail Road | | Change Station
Active Advisory: Flood Warning Active Notice: Public Information Statement

Elev 1007 ft 38.98 °N, 95.30 °W | Updated 40 seconds ago

Clear
Clear
61.7 °F
Feels Like 61.7 °F
N
0.0
Wind Variable Wind from SSE

Today
High -- | Low -- °F
--% Chance of Precip.
Yesterday
High -- | Low -- °F
Precip. -- in
Pressure 30.13 in
Visibility 10.0 miles
Clouds Clear
Dew Point 54 °F
Humidity 75%
Rainfall 1.84 in
Snow Depth Not available.
6:41 AM 8:05 PM
New Moon, 2% visible
METAR KLWC 230252Z AUTO 33006KT 10SM CLR 16/14 A3014 RMK AO2 SLP201 T01610144 53015
Pressure 30.13 in
Visibility 10.0 miles
Clouds Clear
Dew Point 54 °F
Humidity 75%
Rainfall 1.84 in
Snow Depth Not available.
6:41 AM 8:05 PM
New Moon, 2% visible
METAR KLWC 230252Z AUTO 33006KT 10SM CLR 16/14 A3014 RMK AO2 SLP201 T01610144 53015

Get Your Daily Forecast Email!

Thanks for signing up!

Be on the lookout for a verification email in your inbox.

You'll start receiving severe weather alerts in your inbox..

×

10-Day Weather Forecast

Almanac

Astronomy

Aug. 22, 2017 Rise Set
Actual Time
Civil Twilight
Nautical Twilight
Astronomical Twilight
Moon
Length of Visible Light
Length of Day
Tomorrow will be .
, % of the Moon is Illuminated

Today's Extremes

State Highs State Lows

Community

WunderPhotos

Category 6

Welcome to Category 6. This is the collective home for Weather Underground's featured writeups by Dr. Jeff Masters (right), Bob Henson (left), Chris Burt, and other regular contributors.

Nearby

Air Quality

  Air Quality AQ Index Pollutant
Not available.

Snow Depth

Station Depth Elevation

Earthquake Activity

City Distance Mag. Time & Date
Minimum magnitude displayed is 2.5.

Coastal Water Temperatures

Place Temperature

Stations

Nearby Weather Stations

Station Location Temp. Windchill Dew Point Humidity Wind Precip. Elev Updated Type
                   

Watches & Warnings

Flood Warning
Issued: 9:25 PM CDT Aug. 22, 2017 – National Weather Service

The Flood Warning continues for
the Wakarusa river near Lawrence 4s.
* Until Wednesday morning.
* At 8:45 PM Tuesday the stage was 23.6 feet.
* Flood stage is 23.0 feet.
* Minor flooding is occurring.
* Forecast... the river will continue to fall to below flood stage by
tonight.
* Impact... at 23.0 feet... minor low land flooding begins.


Lat... Lon 3892 9529 3896 9510 3894 9508 3891 9517 3890 9529